Cologne Bonn Airport EDDK

Flugplatz Daten

Name: Cologne Bonn Airport

Ident: EDDK

Lat: 50,86589813

Long: 7,142739773

Platzhöhe: 302 ft

IataCode: CGN

City: Cologne

Metar

2021/10/25 23:50
EDDK 252350Z 17004KT 9999 FEW020 SCT025 11/09 Q1019 NOSIG

Taf

2021/10/25 00:27
TAF EDDK 252300Z 2600/2706 18005KT 9999 BKN020 PROB40
TEMPO 2604/2609 BKN014
BECMG 2609/2612 24008KT
BECMG 2617/2620 16005KT PROB30
TEMPO 2701/2704 BKN014
Gewünschte Webcam nicht vorhanden? Dann fügen Sie eine hinzu. Sie wird dann so schnell wie möglich freigeschaltet
Url: Title: